Time;durP1;ratioP1;P1;durP2;ratioP2;P2;SDS_P1;SDS_P2;PMS_P1;PMS_P2;Temp;Humidity;BMP_temperature;BMP_pressure;BME280_temperature;BME280_humidity;BME280_pressure;Samples;Min_cycle;Max_cycle;Signal;HPM_P1;HPM_P2
2023/05/09 00:00:11;;;;;;;14.93;11.33;;;;;;;13.48;100.00;100978.88;682570;28;1404;-77
2023/05/09 00:00:35;;;;;;;15.02;11.95;;;;;;;13.47;100.00;100978.91;681968;28;1491;-77
2023/05/09 00:00:56;;;;;;;16.17;12.25;;;;;;;13.49;100.00;100987.66;678627;28;4291;-77
2023/05/09 00:01:21;;;;;;;15.68;12.48;;;;;;;13.52;100.00;100980.59;678893;29;1564;-77
2023/05/09 00:01:42;;;;;;;16.02;12.85;;;;;;;13.57;100.00;101002.44;679072;29;1411;-77
2023/05/09 00:02:06;;;;;;;15.90;12.40;;;;;;;13.61;100.00;100983.13;678078;29;1381;-77
2023/05/09 00:02:28;;;;;;;15.13;12.50;;;;;;;13.61;100.00;100969.97;679704;29;1448;-77
2023/05/09 00:02:48;;;;;;;15.57;12.82;;;;;;;13.66;100.00;100974.31;682749;28;1582;-77
2023/05/09 00:03:10;;;;;;;14.93;12.50;;;;;;;13.66;100.00;100976.94;681089;28;1613;-77
2023/05/09 00:03:32;;;;;;;15.95;12.73;;;;;;;13.69;100.00;100963.75;679124;29;1396;-77
2023/05/09 00:03:52;;;;;;;16.45;12.40;;;;;;;13.71;100.00;100981.25;676701;29;4309;-77
2023/05/09 00:04:14;;;;;;;16.40;12.38;;;;;;;13.68;100.00;100969.88;681056;28;1420;-77
2023/05/09 00:04:35;;;;;;;15.55;12.40;;;;;;;13.66;100.00;100963.81;679701;29;1436;-78
2023/05/09 00:04:56;;;;;;;16.90;12.35;;;;;;;13.71;100.00;100996.16;682401;28;1400;-78
2023/05/09 00:05:20;;;;;;;15.70;12.27;;;;;;;13.70;100.00;100968.13;685500;28;1454;-77
2023/05/09 00:05:41;;;;;;;14.85;12.32;;;;;;;13.68;100.00;100983.91;687909;28;1414;-78
2023/05/09 00:06:01;;;;;;;15.07;11.93;;;;;;;13.66;100.00;100967.28;686710;28;1154;-78
2023/05/09 00:06:22;;;;;;;14.03;10.83;;;;;;;13.64;100.00;100971.72;687741;28;1383;-78
2023/05/09 00:06:42;;;;;;;16.33;12.10;;;;;;;13.63;100.00;100978.69;686561;28;4317;-78
2023/05/09 00:07:03;;;;;;;15.43;12.37;;;;;;;13.63;100.00;100976.06;686383;28;1387;-77
2023/05/09 00:07:23;;;;;;;15.68;11.93;;;;;;;13.62;100.00;100965.59;687177;28;1430;-77
2023/05/09 00:07:43;;;;;;;16.27;12.50;;;;;;;13.63;100.00;100968.19;684690;28;1167;-78
2023/05/09 00:08:04;;;;;;;15.63;11.68;;;;;;;13.61;100.00;100979.63;678348;29;1440;-78
2023/05/09 00:08:24;;;;;;;14.83;11.80;;;;;;;13.60;100.00;100975.25;679838;29;1467;-78
2023/05/09 00:08:45;;;;;;;15.25;11.93;;;;;;;13.57;100.00;100970.91;679482;29;1384;-78
2023/05/09 00:09:06;;;;;;;15.07;11.80;;;;;;;13.57;100.00;100976.16;676391;29;1468;-78
2023/05/09 00:09:26;;;;;;;16.40;12.30;;;;;;;13.58;100.00;100977.91;677685;29;1385;-78
2023/05/09 00:09:47;;;;;;;15.97;11.77;;;;;;;13.57;100.00;100959.53;681755;28;4314;-78
2023/05/09 00:10:07;;;;;;;16.08;11.43;;;;;;;13.55;100.00;100956.91;683993;28;1672;-78
2023/05/09 00:10:28;;;;;;;15.77;11.68;;;;;;;13.58;100.00;100954.28;686050;28;1485;-78
2023/05/09 00:10:49;;;;;;;16.42;11.90;;;;;;;13.57;100.00;100960.41;678113;29;1605;-78
2023/05/09 00:11:10;;;;;;;17.10;11.80;;;;;;;13.58;100.00;100956.00;679943;28;1217;-78
2023/05/09 00:11:31;;;;;;;17.65;12.38;;;;;;;13.57;100.00;100960.41;684327;28;1485;-78
2023/05/09 00:11:51;;;;;;;17.27;12.83;;;;;;;13.58;100.00;100962.16;681888;28;1376;-78
2023/05/09 00:12:12;;;;;;;16.70;12.73;;;;;;;13.55;100.00;100983.19;685951;28;1380;-77
2023/05/09 00:12:32;;;;;;;15.48;12.40;;;;;;;13.57;100.00;100949.91;687995;28;1387;-78
2023/05/09 00:12:53;;;;;;;15.43;12.47;;;;;;;13.57;100.00;100976.16;685831;28;4280;-78
2023/05/09 00:13:14;;;;;;;19.27;12.38;;;;;;;13.56;100.00;100974.41;684523;28;1324;-78
2023/05/09 00:13:36;;;;;;;18.65;12.35;;;;;;;13.57;100.00;100973.53;684880;28;1411;-79
2023/05/09 00:13:57;;;;;;;17.10;12.57;;;;;;;13.58;100.00;100959.53;680948;28;1154;-78
2023/05/09 00:14:17;;;;;;;15.52;12.13;;;;;;;13.57;100.00;100960.41;681494;29;1834;-78
2023/05/09 00:14:39;;;;;;;15.27;12.00;;;;;;;13.67;100.00;100955.03;681686;29;1372;-78
2023/05/09 00:15:00;;;;;;;16.02;12.40;;;;;;;13.67;100.00;100970.81;683219;28;1910;-78
2023/05/09 00:15:20;;;;;;;16.77;12.85;;;;;;;13.69;100.00;100948.00;687162;28;1446;-78
2023/05/09 00:15:41;;;;;;;17.10;13.13;;;;;;;13.69;100.00;100963.75;685103;28;4384;-77
2023/05/09 00:16:02;;;;;;;16.13;12.80;;;;;;;13.66;100.00;100963.81;682845;28;1395;-78
2023/05/09 00:16:22;;;;;;;16.38;12.30;;;;;;;13.65;100.00;100944.53;680157;29;3205;-78
2023/05/09 00:16:44;;;;;;;16.52;12.55;;;;;;;13.66;100.00;100948.91;683061;28;1324;-78
2023/05/09 00:17:04;;;;;;;16.40;12.63;;;;;;;13.64;100.00;100953.31;682609;28;1414;-78
2023/05/09 00:17:25;;;;;;;16.17;12.20;;;;;;;13.65;100.00;100941.03;686335;28;1614;-78
2023/05/09 00:17:46;;;;;;;15.88;12.88;;;;;;;13.65;100.00;100946.28;686040;28;1120;-77
2023/05/09 00:18:06;;;;;;;16.13;12.80;;;;;;;13.65;100.00;100941.91;686371;28;1518;-77
2023/05/09 00:18:29;;;;;;;16.38;12.60;;;;;;;13.65;100.00;100938.41;689622;28;1168;-77
2023/05/09 00:18:50;;;;;;;16.60;12.98;;;;;;;13.63;100.00;100944.53;688102;28;4324;-78
2023/05/09 00:19:11;;;;;;;16.03;12.30;;;;;;;13.63;100.00;100949.81;686231;28;1277;-78
2023/05/09 00:19:32;;;;;;;16.42;12.30;;;;;;;13.60;100.00;100944.59;687102;28;1387;-78
2023/05/09 00:19:54;;;;;;;15.60;12.05;;;;;;;13.62;100.00;100948.09;690822;28;1314;-77
2023/05/09 00:20:14;;;;;;;17.27;13.52;;;;;;;13.63;100.00;100943.69;687548;28;1462;-78
2023/05/09 00:20:35;;;;;;;16.90;13.07;;;;;;;13.60;100.00;100947.22;690090;28;1414;-78
2023/05/09 00:20:56;;;;;;;15.97;12.00;;;;;;;13.58;100.00;100940.25;688862;28;1299;-78
2023/05/09 00:21:16;;;;;;;15.70;12.27;;;;;;;13.57;100.00;100946.41;689185;28;1363;-78
2023/05/09 00:21:37;;;;;;;15.17;11.87;;;;;;;13.56;100.00;100942.91;690009;28;1584;-78
2023/05/09 00:21:57;;;;;;;17.42;12.52;;;;;;;13.53;100.00;100939.47;688337;28;4299;-78
2023/05/09 00:22:22;;;;;;;17.57;11.90;;;;;;;13.53;100.00;100942.09;682045;28;1306;-78
2023/05/09 00:22:44;;;;;;;15.10;11.60;;;;;;;13.57;100.00;100946.41;683937;28;830;-78
2023/05/09 00:23:06;;;;;;;14.15;11.35;;;;;;;13.57;100.00;100939.38;681811;28;1645;-78
2023/05/09 00:23:26;;;;;;;16.45;12.27;;;;;;;13.55;100.00;100943.78;684511;28;1535;-78
2023/05/09 00:23:46;;;;;;;17.75;12.88;;;;;;;13.54;100.00;100947.31;687983;28;1493;-78
2023/05/09 00:24:07;;;;;;;16.30;12.73;;;;;;;13.51;100.00;100942.06;685177;28;1660;-77
2023/05/09 00:24:27;;;;;;;14.93;11.50;;;;;;;13.50;100.00;100943.00;689087;28;1592;-77
2023/05/09 00:24:48;;;;;;;16.17;11.70;;;;;;;13.48;100.00;100939.50;686586;28;4304;-77
2023/05/09 00:25:10;;;;;;;15.68;11.88;;;;;;;13.47;100.00;100950.88;686300;28;1557;-78
2023/05/09 00:25:30;;;;;;;15.20;11.82;;;;;;;13.45;100.00;100937.78;686341;28;1428;-78
2023/05/09 00:25:51;;;;;;;14.53;11.70;;;;;;;13.44;100.00;100948.28;681541;29;1364;-77
2023/05/09 00:26:11;;;;;;;15.37;12.20;;;;;;;13.42;100.00;100944.84;685928;28;1335;-78
2023/05/09 00:26:34;;;;;;;15.45;11.98;;;;;;;13.42;100.00;100936.97;685298;28;1475;-78
2023/05/09 00:27:00;;;;;;;14.63;11.63;;;;;;;13.43;100.00;100934.31;685394;28;1423;-78
2023/05/09 00:27:21;;;;;;;15.68;11.55;;;;;;;13.43;100.00;100938.69;680925;28;1680;-77
2023/05/09 00:27:41;;;;;;;17.37;12.30;;;;;;;13.42;100.00;100934.34;684970;28;4374;-77
2023/05/09 00:28:02;;;;;;;17.27;12.77;;;;;;;13.41;100.00;100935.22;683456;28;1443;-78
2023/05/09 00:28:22;;;;;;;16.57;12.23;;;;;;;13.39;100.00;100942.25;681974;29;1526;-77
2023/05/09 00:28:43;;;;;;;14.82;11.48;;;;;;;13.39;100.00;100944.88;679361;29;1650;-78
2023/05/09 00:29:03;;;;;;;14.80;11.13;;;;;;;13.37;100.00;100946.63;681143;28;1415;-78
2023/05/09 00:29:23;;;;;;;14.80;11.48;;;;;;;13.39;100.00;100942.25;684740;28;1268;-77
2023/05/09 00:29:44;;;;;;;16.23;11.83;;;;;;;13.47;100.00;100936.91;682163;29;1553;-78
2023/05/09 00:30:05;;;;;;;19.02;12.10;;;;;;;13.44;100.00;100929.91;683300;28;1621;-79
2023/05/09 00:30:26;;;;;;;17.05;12.10;;;;;;;13.41;100.00;100933.44;682025;29;1633;-80
2023/05/09 00:30:46;;;;;;;14.80;12.00;;;;;;;13.39;100.00;100939.63;681584;28;4349;-79
2023/05/09 00:31:10;;;;;;;16.45;12.20;;;;;;;13.36;100.00;100934.38;677948;29;1264;-80
2023/05/09 00:31:31;;;;;;;15.93;11.95;;;;;;;13.36;100.00;100931.75;679593;29;1533;-80
2023/05/09 00:31:51;;;;;;;15.05;11.80;;;;;;;13.33;100.00;100939.66;678849;29;1416;-79
2023/05/09 00:32:12;;;;;;;15.33;12.33;;;;;;;13.33;100.00;100931.78;680266;28;1383;-80
2023/05/09 00:32:33;;;;;;;15.40;12.18;;;;;;;13.30;100.00;100940.56;684430;28;1426;-79
2023/05/09 00:32:53;;;;;;;16.38;12.80;;;;;;;13.29;100.00;100937.06;683294;28;1478;-79
2023/05/09 00:33:14;;;;;;;15.97;12.37;;;;;;;13.29;100.00;100944.06;681473;28;1320;-80
2023/05/09 00:33:34;;;;;;;18.27;12.52;;;;;;;13.28;100.00;100937.09;683639;28;1451;-80
2023/05/09 00:33:58;;;;;;;16.47;12.70;;;;;;;13.27;100.00;100936.19;681548;28;4306;-80
2023/05/09 00:34:19;;;;;;;17.15;12.65;;;;;;;13.28;100.00;100943.19;683679;28;1418;-79
2023/05/09 00:34:39;;;;;;;15.55;12.48;;;;;;;13.24;100.00;100951.13;684262;28;1490;-80
2023/05/09 00:35:00;;;;;;;15.95;12.73;;;;;;;13.23;100.00;100929.25;681006;28;1894;-79
2023/05/09 00:35:21;;;;;;;17.45;13.32;;;;;;;13.23;100.00;100937.13;681941;28;1570;-80
2023/05/09 00:35:41;;;;;;;18.53;13.70;;;;;;;13.25;100.00;100940.63;684830;28;1483;-79
2023/05/09 00:36:02;;;;;;;18.33;13.75;;;;;;;13.28;100.00;100937.94;681264;28;1467;-79
2023/05/09 00:36:22;;;;;;;19.43;14.00;;;;;;;13.27;100.00;100930.94;682048;29;1467;-79
2023/05/09 00:36:43;;;;;;;20.17;14.23;;;;;;;13.27;100.00;100925.69;682040;28;4349;-80
2023/05/09 00:37:03;;;;;;;17.93;12.80;;;;;;;13.30;100.00;100924.81;681273;28;1547;-79
2023/05/09 00:37:24;;;;;;;17.52;13.00;;;;;;;13.32;100.00;100928.28;680977;29;1242;-79
2023/05/09 00:37:44;;;;;;;19.47;13.40;;;;;;;13.29;100.00;100928.31;684053;28;1577;-79
2023/05/09 00:38:05;;;;;;;18.13;13.50;;;;;;;13.34;100.00;100946.66;680844;28;1557;-78
2023/05/09 00:38:26;;;;;;;17.55;13.35;;;;;;;13.43;100.00;100925.53;684467;28;1325;-77
2023/05/09 00:38:46;;;;;;;15.70;12.80;;;;;;;13.42;100.00;100927.31;683524;28;5300;-77
2023/05/09 00:39:07;;;;;;;18.85;12.85;;;;;;;13.40;100.00;100939.59;677727;29;1408;-77
2023/05/09 00:39:27;;;;;;;17.93;13.23;;;;;;;13.40;100.00;100929.09;678335;29;1408;-77
2023/05/09 00:39:48;;;;;;;17.00;13.27;;;;;;;13.38;100.00;100951.88;681807;28;4393;-77
2023/05/09 00:40:09;;;;;;;17.15;12.73;;;;;;;13.37;100.00;100957.16;678392;28;1332;-78
2023/05/09 00:40:30;;;;;;;16.17;12.68;;;;;;;13.36;100.00;100937.91;684409;28;1661;-77
2023/05/09 00:40:51;;;;;;;17.05;13.10;;;;;;;13.36;100.00;100939.63;681431;29;1530;-78
2023/05/09 00:41:11;;;;;;;15.83;13.13;;;;;;;13.36;100.00;100929.13;678129;29;1241;-77
2023/05/09 00:41:32;;;;;;;16.87;13.30;;;;;;;13.35;100.00;100943.16;681061;28;1427;-77
2023/05/09 00:41:55;;;;;;;17.30;13.18;;;;;;;13.33;100.00;100950.16;681554;29;1374;-77
2023/05/09 00:42:19;;;;;;;16.55;12.73;;;;;;;13.33;100.00;100930.00;684824;28;1379;-77
2023/05/09 00:42:39;;;;;;;17.20;12.82;;;;;;;13.35;100.00;100943.16;684024;28;4418;-78
2023/05/09 00:43:03;;;;;;;16.60;12.60;;;;;;;13.34;100.00;100933.53;681655;28;1494;-79
2023/05/09 00:43:24;;;;;;;17.20;12.63;;;;;;;13.33;100.00;100964.13;683592;28;1467;-77
2023/05/09 00:43:45;;;;;;;16.00;12.65;;;;;;;13.33;100.00;100956.25;682313;28;1462;-78
2023/05/09 00:44:06;;;;;;;17.02;12.68;;;;;;;13.32;100.00;100937.91;676169;29;1476;-77
2023/05/09 00:44:26;;;;;;;16.83;12.85;;;;;;;13.33;100.00;100940.50;676479;29;1439;-77
2023/05/09 00:44:47;;;;;;;16.38;12.82;;;;;;;13.33;100.00;100931.78;676418;29;1337;-77
2023/05/09 00:45:08;;;;;;;17.03;12.70;;;;;;;13.33;100.00;100939.66;683171;28;1459;-77
2023/05/09 00:45:29;;;;;;;17.50;12.85;;;;;;;13.33;100.00;100939.66;685145;28;1580;-77
2023/05/09 00:45:50;;;;;;;16.05;12.55;;;;;;;13.34;100.00;100937.00;681377;28;4335;-77
2023/05/09 00:46:11;;;;;;;16.58;13.02;;;;;;;13.34;100.00;100934.38;682198;28;1368;-77
2023/05/09 00:46:31;;;;;;;16.53;12.37;;;;;;;13.35;100.00;100936.16;682788;28;1589;-77
2023/05/09 00:46:51;;;;;;;16.05;12.32;;;;;;;13.35;100.00;100951.91;681798;29;1316;-77
2023/05/09 00:47:14;;;;;;;16.40;12.87;;;;;;;13.34;100.00;100934.38;678201;29;1316;-77
2023/05/09 00:47:37;;;;;;;15.95;12.40;;;;;;;13.35;100.00;100956.28;682348;29;1459;-77
2023/05/09 00:48:00;;;;;;;16.38;12.20;;;;;;;13.33;100.00;100942.28;680413;29;1378;-77
2023/05/09 00:48:21;;;;;;;16.17;12.50;;;;;;;13.33;100.00;100952.78;681357;29;1412;-77
2023/05/09 00:48:45;;;;;;;16.00;12.30;;;;;;;13.34;100.00;100936.16;672427;29;4351;-77
2023/05/09 00:49:06;;;;;;;17.25;12.60;;;;;;;13.33;100.00;100953.63;682384;28;1490;-77
2023/05/09 00:49:27;;;;;;;16.60;13.15;;;;;;;13.39;100.00;100939.63;681443;28;1438;-77
2023/05/09 00:49:58;;;;;;;;;;;;;;;;;;;;;
2023/05/09 00:50:19;;;;;;;14.93;11.90;;;;;;;13.36;100.00;100919.53;678879;29;1444;-79
2023/05/09 00:50:40;;;;;;;16.08;12.30;;;;;;;13.37;100.00;100954.53;681791;29;1510;-79
2023/05/09 00:51:01;;;;;;;16.23;12.18;;;;;;;13.37;100.00;100954.53;678180;29;1498;-79
2023/05/09 00:51:27;;;;;;;17.17;12.30;;;;;;;13.37;100.00;100923.88;680816;29;1447;-79
2023/05/09 00:51:48;;;;;;;16.83;12.40;;;;;;;13.36;100.00;100948.41;681242;28;4395;-80
2023/05/09 00:52:09;;;;;;;17.52;12.25;;;;;;;13.35;100.00;100944.03;680743;28;1578;-79
2023/05/09 00:52:32;;;;;;;16.87;12.40;;;;;;;13.36;100.00;100919.53;679587;29;1708;-79
2023/05/09 00:52:53;;;;;;;15.52;12.10;;;;;;;13.35;100.00;100945.78;681574;29;1378;-79
2023/05/09 00:53:13;;;;;;;15.43;11.38;;;;;;;13.33;100.00;100921.28;682566;28;1166;-79
2023/05/09 00:53:35;;;;;;;14.93;11.43;;;;;;;13.32;100.00;100915.16;684674;28;1390;-80
2023/05/09 00:53:59;;;;;;;15.98;11.85;;;;;;;13.34;100.00;100930.91;682300;29;1411;-79
2023/05/09 00:54:20;;;;;;;15.95;12.32;;;;;;;13.32;100.00;100907.28;683648;28;1436;-79
2023/05/09 00:54:41;;;;;;;17.47;12.87;;;;;;;13.35;100.00;100914.25;683518;28;5227;-80
2023/05/09 00:55:01;;;;;;;17.50;13.05;;;;;;;13.37;100.00;100936.13;682999;28;1922;-79
2023/05/09 00:55:26;;;;;;;17.88;13.30;;;;;;;13.37;100.00;100925.63;681549;29;1320;-79
2023/05/09 00:55:47;;;;;;;15.93;12.60;;;;;;;13.38;100.00;100928.25;681565;28;1633;-80
2023/05/09 00:56:09;;;;;;;17.60;12.93;;;;;;;13.38;100.00;100928.25;675734;29;1547;-79
2023/05/09 00:56:30;;;;;;;16.95;12.70;;;;;;;13.39;100.00;100911.59;679811;29;1602;-80
2023/05/09 00:56:51;;;;;;;15.80;12.52;;;;;;;13.38;100.00;100909.00;679302;29;1308;-80
2023/05/09 00:57:11;;;;;;;16.60;12.47;;;;;;;13.37;100.00;100902.84;680739;29;1308;-79
2023/05/09 00:57:32;;;;;;;16.52;12.68;;;;;;;13.41;100.00;100912.44;679281;29;1355;-79
2023/05/09 00:57:53;;;;;;;16.02;12.27;;;;;;;13.40;100.00;100931.72;676396;29;4335;-80
2023/05/09 00:58:13;;;;;;;16.58;12.25;;;;;;;13.41;100.00;100914.22;678174;29;1324;-79
2023/05/09 00:58:34;;;;;;;16.70;11.93;;;;;;;13.41;100.00;100919.47;679014;29;1412;-79
2023/05/09 00:58:55;;;;;;;15.20;11.80;;;;;;;13.40;100.00;100905.47;679876;29;1447;-79
2023/05/09 00:59:16;;;;;;;16.27;12.30;;;;;;;13.44;100.00;100916.78;678559;29;1321;-79
2023/05/09 00:59:37;;;;;;;17.05;12.23;;;;;;;13.41;100.00;100906.31;681921;29;1534;-80
2023/05/09 00:59:58;;;;;;;16.90;11.88;;;;;;;13.40;100.00;100922.97;681928;28;1428;-79
2023/05/09 01:00:19;;;;;;;16.83;12.55;;;;;;;13.40;100.00;100915.09;683681;28;1438;-80
2023/05/09 01:00:39;;;;;;;15.85;11.88;;;;;;;13.39;100.00;100931.75;686704;28;4295;-80
2023/05/09 01:01:02;;;;;;;16.60;12.05;;;;;;;13.37;100.00;100905.47;683867;28;1415;-79
2023/05/09 01:01:23;;;;;;;15.93;12.10;;;;;;;13.40;100.00;100915.09;685215;28;1504;-79
2023/05/09 01:01:44;;;;;;;15.52;12.43;;;;;;;13.39;100.00;100902.88;683007;28;1455;-79
2023/05/09 01:02:06;;;;;;;16.35;12.68;;;;;;;13.39;100.00;100916.84;680871;28;1586;-80
2023/05/09 01:02:26;;;;;;;16.38;12.20;;;;;;;13.39;100.00;100913.38;681331;28;1586;-79
2023/05/09 01:02:52;;;;;;;16.17;12.43;;;;;;;13.36;100.00;100923.88;680792;29;1538;-80
2023/05/09 01:03:13;;;;;;;16.90;11.98;;;;;;;13.37;100.00;100902.00;680459;28;1285;-80
2023/05/09 01:03:35;;;;;;;14.35;11.32;;;;;;;13.36;100.00;100903.78;682583;28;1498;-79
2023/05/09 01:03:55;;;;;;;15.73;11.55;;;;;;;13.37;100.00;100920.38;684657;28;5057;-79
2023/05/09 01:04:16;;;;;;;15.95;12.13;;;;;;;13.38;100.00;100922.13;682078;28;1336;-79
2023/05/09 01:04:37;;;;;;;16.27;12.37;;;;;;;13.38;100.00;100904.59;684242;28;1506;-79
2023/05/09 01:04:58;;;;;;;16.55;12.77;;;;;;;13.40;100.00;100909.84;683894;28;1521;-79
2023/05/09 01:05:20;;;;;;;16.15;12.32;;;;;;;13.40;100.00;100926.47;682387;28;1400;-77
2023/05/09 01:06:24;;;;;;;18.50;12.85;;;;;;;13.41;100.00;100901.06;686556;28;1410;-77
2023/05/09 01:06:58;;;;;;;15.98;12.23;;;;;;;13.40;100.00;100907.22;676741;29;4589;-78
2023/05/09 01:07:34;;;;;;;14.80;11.68;;;;;;;13.37;100.00;100904.63;680963;28;1303;-78
2023/05/09 01:08:04;;;;;;;15.02;11.55;;;;;;;13.39;100.00;100905.50;686725;28;1469;-77
2023/05/09 01:08:42;;;;;;;16.52;12.18;;;;;;;13.38;100.00;100901.97;685090;28;1347;-77
2023/05/09 01:09:12;;;;;;;17.02;12.65;;;;;;;13.38;100.00;100906.38;685972;28;1453;-78
2023/05/09 01:09:32;;;;;;;16.73;12.63;;;;;;;13.38;100.00;100903.75;689549;28;1390;-78
2023/05/09 01:10:09;;;;;;;17.43;12.97;;;;;;;13.39;100.00;100897.63;689029;28;4275;-77
2023/05/09 01:10:48;;;;;;;16.13;12.10;;;;;;;13.43;100.00;100905.44;684225;28;1677;-77
2023/05/09 01:11:20;;;;;;;16.75;12.90;;;;;;;13.43;100.00;100894.91;680345;28;1243;-77
2023/05/09 01:11:51;;;;;;;17.23;12.73;;;;;;;13.44;100.00;100901.03;681536;29;1455;-77
2023/05/09 01:12:18;;;;;;;17.35;12.45;;;;;;;13.44;100.00;100895.78;679706;28;1276;-77
2023/05/09 01:13:03;;;;;;;16.17;12.48;;;;;;;13.44;100.00;100901.03;682072;28;4411;-77
2023/05/09 01:13:37;;;;;;;17.10;12.88;;;;;;;13.43;100.00;100884.41;683259;28;1478;-77
2023/05/09 01:14:34;;;;;;;16.67;13.00;;;;;;;13.43;100.00;100884.41;684351;28;1371;-79
2023/05/09 01:15:07;;;;;;;18.88;13.15;;;;;;;13.43;100.00;100883.53;687279;28;1911;-80
2023/05/09 01:15:35;;;;;;;16.30;12.70;;;;;;;13.42;100.00;100893.19;690114;28;1565;-80
2023/05/09 01:16:18;;;;;;;16.23;12.73;;;;;;;13.41;100.00;100887.94;686379;28;4288;-78
2023/05/09 01:16:49;;;;;;;15.48;11.82;;;;;;;13.42;100.00;100889.69;683462;28;1574;-77
2023/05/09 01:17:16;;;;;;;15.98;12.63;;;;;;;13.41;100.00;100887.94;679215;28;1570;-77
2023/05/09 01:18:11;;;;;;;16.42;12.60;;;;;;;13.42;100.00;100892.31;678380;29;1463;-77
2023/05/09 01:18:37;;;;;;;15.35;11.93;;;;;;;13.41;100.00;100898.44;670347;29;1496;-78
2023/05/09 01:19:23;;;;;;;15.05;12.27;;;;;;;13.38;100.00;100888.84;670851;29;4290;-78
2023/05/09 01:19:55;;;;;;;15.13;11.80;;;;;;;13.37;100.00;100891.50;675927;29;1618;-77
2023/05/09 01:20:27;;;;;;;16.75;12.30;;;;;;;13.37;100.00;100894.13;676280;28;1234;-78
2023/05/09 01:21:00;;;;;;;15.20;12.38;;;;;;;13.36;100.00;100906.41;688861;28;1664;-77
2023/05/09 01:21:28;;;;;;;17.10;13.02;;;;;;;13.36;100.00;100889.75;685323;28;1396;-77
2023/05/09 01:21:50;;;;;;;17.02;12.32;;;;;;;13.36;100.00;100893.25;684640;28;4322;-77
2023/05/09 01:22:15;;;;;;;16.15;12.20;;;;;;;13.36;100.00;100898.53;684431;28;1225;-77
2023/05/09 01:22:38;;;;;;;16.92;12.10;;;;;;;13.36;100.00;100900.25;682727;28;1367;-77
2023/05/09 01:23:37;;;;;;;16.30;12.25;;;;;;;13.36;100.00;100892.38;683713;28;1591;-77
2023/05/09 01:24:12;;;;;;;17.35;12.95;;;;;;;13.36;100.00;100890.66;676037;28;1658;-77
2023/05/09 01:24:43;;;;;;;16.65;12.75;;;;;;;13.37;100.00;100894.13;682286;28;1354;-77
2023/05/09 01:25:35;;;;;;;16.25;12.55;;;;;;;13.46;100.00;100886.13;684147;28;4989;-77
2023/05/09 01:26:05;;;;;;;16.25;11.85;;;;;;;13.58;100.00;100879.84;686072;28;1315;-78
2023/05/09 01:26:46;;;;;;;16.35;11.88;;;;;;;13.58;100.00;100883.34;688308;28;1478;-77
2023/05/09 01:27:43;;;;;;;15.18;11.38;;;;;;;13.49;100.00;100878.22;686119;28;1307;-77
2023/05/09 01:28:15;;;;;;;15.70;11.60;;;;;;;13.43;100.00;100878.28;681875;28;4851;-77
2023/05/09 01:28:58;;;;;;;15.35;12.10;;;;;;;13.40;100.00;100883.56;686135;28;1291;-77
2023/05/09 01:29:21;;;;;;;15.48;11.30;;;;;;;13.36;100.00;100887.13;688963;28;1192;-77
2023/05/09 01:29:46;;;;;;;14.20;10.90;;;;;;;13.35;100.00;100890.63;684718;28;1612;-77
2023/05/09 01:30:08;;;;;;;15.77;11.65;;;;;;;13.31;100.00;100886.31;683933;28;1574;-77
2023/05/09 01:30:30;;;;;;;15.00;11.27;;;;;;;13.31;100.00;100889.78;682143;29;1547;-78
2023/05/09 01:30:53;;;;;;;15.07;11.52;;;;;;;13.31;100.00;100883.69;683030;28;4324;-77
2023/05/09 01:31:16;;;;;;;15.57;11.93;;;;;;;13.29;100.00;100888.91;682926;28;1237;-77
2023/05/09 01:31:40;;;;;;;15.63;11.50;;;;;;;13.29;100.00;100892.44;681988;28;1426;-77
2023/05/09 01:32:14;;;;;;;15.88;11.38;;;;;;;13.29;100.00;100887.19;681588;28;1554;-77
2023/05/09 01:32:38;;;;;;;15.38;11.23;;;;;;;13.29;100.00;100891.53;683210;28;1478;-77
2023/05/09 01:33:06;;;;;;;15.55;12.00;;;;;;;13.28;100.00;100895.94;684982;28;1363;-77
2023/05/09 01:33:31;;;;;;;15.65;11.73;;;;;;;13.25;100.00;100880.22;686042;28;1565;-77
2023/05/09 01:33:56;;;;;;;15.68;11.25;;;;;;;13.25;100.00;100884.59;688379;28;4292;-77
2023/05/09 01:34:18;;;;;;;16.15;11.55;;;;;;;13.24;100.00;100889.00;685894;28;1312;-77
2023/05/09 01:34:41;;;;;;;15.98;12.02;;;;;;;13.23;100.00;100882.00;690036;28;1458;-77
2023/05/09 01:35:04;;;;;;;14.73;11.63;;;;;;;13.23;100.00;100881.13;686767;28;1907;-77
2023/05/09 01:35:29;;;;;;;15.85;11.73;;;;;;;13.23;100.00;100875.88;686515;28;1604;-78
2023/05/09 01:35:56;;;;;;;15.23;11.45;;;;;;;13.23;100.00;100876.75;689208;28;1592;-78
2023/05/09 01:36:18;;;;;;;14.82;11.57;;;;;;;13.24;100.00;100875.00;686250;28;1583;-77
2023/05/09 01:36:42;;;;;;;15.02;11.35;;;;;;;13.23;100.00;100882.00;686909;28;4341;-77
2023/05/09 01:37:05;;;;;;;15.13;11.60;;;;;;;13.23;100.00;100876.75;683880;28;1300;-77
2023/05/09 01:37:31;;;;;;;16.90;12.07;;;;;;;13.24;100.00;100878.50;687730;28;1455;-78
2023/05/09 01:37:53;;;;;;;15.32;11.75;;;;;;;13.21;100.00;100882.91;687939;28;1478;-78
2023/05/09 01:38:17;;;;;;;15.95;11.90;;;;;;;13.21;100.00;100867.16;683457;28;1316;-77
2023/05/09 01:38:41;;;;;;;16.02;11.73;;;;;;;13.21;100.00;100869.78;686380;28;1418;-77
2023/05/09 01:39:03;;;;;;;16.85;12.27;;;;;;;13.20;100.00;100874.16;689024;28;5588;-78
2023/05/09 01:39:25;;;;;;;15.20;12.10;;;;;;;13.20;100.00;100868.91;684996;28;1414;-77
2023/05/09 01:39:50;;;;;;;15.55;11.80;;;;;;;13.21;100.00;100870.66;684523;28;4324;-77
2023/05/09 01:40:19;;;;;;;14.68;11.15;;;;;;;13.21;100.00;100877.66;685132;28;1303;-78
2023/05/09 01:40:41;;;;;;;15.65;11.90;;;;;;;13.21;100.00;100873.28;692162;28;1421;-78
2023/05/09 01:41:04;;;;;;;15.38;11.88;;;;;;;13.21;100.00;100872.41;688681;28;1477;-77
2023/05/09 01:41:29;;;;;;;15.95;11.65;;;;;;;13.19;100.00;100869.78;686749;28;1431;-78
2023/05/09 01:41:54;;;;;;;15.88;12.38;;;;;;;13.19;100.00;100875.03;685493;28;1574;-77
2023/05/09 01:42:17;;;;;;;16.42;12.30;;;;;;;13.19;100.00;100874.19;680957;28;1384;-77
2023/05/09 01:42:51;;;;;;;17.10;12.23;;;;;;;13.19;100.00;100869.78;681406;29;1399;-77
2023/05/09 01:43:15;;;;;;;16.65;12.32;;;;;;;13.19;100.00;100872.41;682683;28;4778;-78
2023/05/09 01:43:37;;;;;;;16.70;12.10;;;;;;;13.19;100.00;100874.19;684990;28;1518;-77
2023/05/09 01:44:00;;;;;;;17.43;12.03;;;;;;;13.19;100.00;100874.19;685240;28;1451;-77
2023/05/09 01:44:26;;;;;;;16.90;12.23;;;;;;;13.18;100.00;100873.34;684733;28;1438;-78
2023/05/09 01:44:48;;;;;;;16.52;12.45;;;;;;;13.18;100.00;100875.97;687456;28;1241;-77
2023/05/09 01:45:09;;;;;;;15.55;12.30;;;;;;;13.18;100.00;100873.34;684425;28;1645;-77
2023/05/09 01:45:31;;;;;;;15.60;12.35;;;;;;;13.18;100.00;100875.97;685125;28;1542;-78
2023/05/09 01:45:52;;;;;;;17.35;12.23;;;;;;;13.20;100.00;100876.78;684447;28;4318;-77
2023/05/09 01:46:17;;;;;;;17.08;12.45;;;;;;;13.21;100.00;100872.41;684154;28;1352;-77
2023/05/09 01:46:38;;;;;;;16.27;12.40;;;;;;;13.21;100.00;100873.28;682226;29;1392;-78
2023/05/09 01:47:00;;;;;;;16.80;12.50;;;;;;;13.22;100.00;100888.16;680396;28;1416;-77
2023/05/09 01:47:24;;;;;;;16.52;12.90;;;;;;;13.24;100.00;100882.88;682579;29;1411;-77
2023/05/09 01:47:47;;;;;;;17.40;12.25;;;;;;;13.22;100.00;100875.03;684715;28;1427;-77
2023/05/09 01:48:09;;;;;;;18.00;12.00;;;;;;;13.23;100.00;100878.50;685855;28;1585;-77
2023/05/09 01:48:30;;;;;;;18.20;12.20;;;;;;;13.24;100.00;100889.00;684384;28;1602;-77
2023/05/09 01:48:53;;;;;;;15.68;11.90;;;;;;;13.23;100.00;100882.00;681669;28;4299;-77
2023/05/09 01:49:17;;;;;;;15.00;11.65;;;;;;;13.22;100.00;100880.28;685703;28;1307;-77
2023/05/09 01:49:40;;;;;;;15.23;11.63;;;;;;;13.22;100.00;100877.66;682842;28;1288;-77
2023/05/09 01:50:03;;;;;;;16.92;12.30;;;;;;;13.22;100.00;100875.03;686676;28;1390;-77